Time;durP1;ratioP1;P1;durP2;ratioP2;P2;SDS_P1;SDS_P2;PMS_P1;PMS_P2;Temp;Humidity;BMP_temperature;BMP_pressure;BME280_temperature;BME280_humidity;BME280_pressure;Samples;Min_cycle;Max_cycle;Signal;HPM_P1;HPM_P2
2022/05/26 00:02:13;;;;;;;;;;;;;;;24.79;25.08;99723.06;5095000;28;19920;-70
2022/05/26 00:04:38;;;;;;;;;;;;;;;24.81;25.33;99717.31;5094257;28;20278;-69
2022/05/26 00:07:04;;;;;;;;;;;;;;;24.82;25.55;99711.53;5094023;28;19916;-69
2022/05/26 00:09:29;;;;;;;;;;;;;;;24.82;25.33;99714.28;5094290;28;19916;-69
2022/05/26 00:11:54;;;;;;;;;;;;;;;24.81;25.41;99711.84;5094127;28;20003;-69
2022/05/26 00:14:19;;;;;;;;;;;;;;;24.79;25.79;99712.13;5094239;28;19916;-71
2022/05/26 00:16:45;;;;;;;;;;;;;;;24.80;25.77;99699.28;5076168;28;19959;-69
2022/05/26 00:19:11;;;;;;;;;;;;;;;24.80;25.63;99694.63;5094538;28;19916;-69
2022/05/26 00:21:36;;;;;;;;;;;;;;;24.78;25.79;99691.38;5093726;28;19916;-69
2022/05/26 00:24:02;;;;;;;;;;;;;;;24.80;26.07;99686.44;5093875;28;20004;-69
2022/05/26 00:26:27;;;;;;;;;;;;;;;24.79;25.95;99684.00;5094045;28;20331;-69
2022/05/26 00:28:52;;;;;;;;;;;;;;;24.79;25.99;99684.81;5093711;28;19920;-70
2022/05/26 00:31:18;;;;;;;;;;;;;;;24.79;26.12;99679.34;5093676;28;19916;-69
2022/05/26 00:33:43;;;;;;;;;;;;;;;24.79;26.34;99676.59;5076113;28;19920;-69
2022/05/26 00:36:09;;;;;;;;;;;;;;;24.80;26.50;99672.78;5094055;28;19920;-69
2022/05/26 00:38:35;;;;;;;;;;;;;;;24.79;26.53;99659.41;5093985;28;19947;-69
2022/05/26 00:41:03;;;;;;;;;;;;;;;24.80;26.46;99659.13;5093928;28;19916;-69
2022/05/26 00:43:29;;;;;;;;;;;;;;;24.79;26.49;99668.41;5093938;28;20007;-69
2022/05/26 00:45:56;;;;;;;;;;;;;;;24.79;26.69;99664.88;5075705;28;19952;-69
2022/05/26 00:48:22;;;;;;;;;;;;;;;24.79;26.62;99665.69;5093869;28;19923;-69
2022/05/26 00:50:49;;;;;;;;;;;;;;;24.78;26.70;99665.97;5075785;28;19939;-69
2022/05/26 00:53:17;;;;;;;;;;;;;;;24.76;26.81;99666.28;5075902;28;19937;-74
2022/05/26 00:55:47;;;;;;;;;;;;;;;24.77;26.97;99661.59;5093653;28;20393;-74
2022/05/26 00:58:33;;;;;;;;;;;;;;;24.79;27.00;99657.47;5075989;28;19916;-76
2022/05/26 01:00:58;;;;;;;;;;;;;;;24.78;27.10;99650.38;5092887;28;19954;-76
2022/05/26 01:03:27;;;;;;;;;;;;;;;24.80;27.19;99658.28;5075833;28;19990;-76
2022/05/26 01:05:57;;;;;;;;;;;;;;;24.78;27.10;99655.84;5093585;28;20006;-76
2022/05/26 01:08:23;;;;;;;;;;;;;;;24.76;27.19;99647.16;5075749;28;19916;-76
2022/05/26 01:10:49;;;;;;;;;;;;;;;24.75;27.09;99648.28;5075684;28;19917;-76
2022/05/26 01:13:17;;;;;;;;;;;;;;;24.76;27.19;99652.63;5093716;28;19916;-76
2022/05/26 01:15:42;;;;;;;;;;;;;;;24.75;27.04;99648.28;5094100;28;19916;-75
2022/05/26 01:18:10;;;;;;;;;;;;;;;24.78;27.17;99649.59;5075793;28;19939;-75
2022/05/26 01:20:54;;;;;;;;;;;;;;;24.78;27.42;99646.84;5075621;28;19916;-75
2022/05/26 01:23:38;;;;;;;;;;;;;;;24.76;27.02;99640.88;5093078;28;19924;-75
2022/05/26 01:26:13;;;;;;;;;;;;;;;24.76;27.34;99638.94;5093622;28;19931;-75
2022/05/26 01:28:50;;;;;;;;;;;;;;;24.77;27.11;99632.38;5093840;28;19927;-75
2022/05/26 01:31:29;;;;;;;;;;;;;;;24.78;26.87;99630.44;5094284;28;19938;-75
2022/05/26 01:33:54;;;;;;;;;;;;;;;24.78;27.22;99625.00;5076463;28;19955;-76
2022/05/26 01:36:22;;;;;;;;;;;;;;;24.77;27.27;99623.34;5094679;28;20317;-76
2022/05/26 01:39:02;;;;;;;;;;;;;;;24.79;27.33;99612.97;5093668;28;19923;-76
2022/05/26 01:41:46;;;;;;;;;;;;;;;24.77;27.15;99610.53;5093778;28;19923;-76
2022/05/26 01:44:18;;;;;;;;;;;;;;;24.75;27.24;99612.75;5094424;28;20005;-76
2022/05/26 01:46:43;;;;;;;;;;;;;;;24.74;27.41;99611.13;5079444;28;20004;-76
2022/05/26 01:49:18;;;;;;;;;;;;;;;24.74;27.25;99609.19;5079126;28;19948;-76
2022/05/26 01:52:03;;;;;;;;;;;;;;;24.75;27.17;99607.28;5097372;28;19920;-76
2022/05/26 01:54:47;;;;;;;;;;;;;;;24.73;27.05;99607.59;5096792;28;19988;-76
2022/05/26 01:57:20;;;;;;;;;;;;;;;24.72;27.19;99614.16;5097259;28;19999;-75
2022/05/26 01:59:47;;;;;;;;;;;;;;;24.74;26.98;99609.19;5079040;28;19916;-75
2022/05/26 02:02:21;;;;;;;;;;;;;;;24.77;27.13;99604.22;5078848;28;19924;-75
2022/05/26 02:04:48;;;;;;;;;;;;;;;24.76;27.55;99603.44;5096793;28;19916;-75
2022/05/26 02:07:18;;;;;;;;;;;;;;;24.74;27.47;99600.19;5096581;28;19924;-75
2022/05/26 02:09:43;;;;;;;;;;;;;;;24.75;27.40;99599.09;5096998;28;19920;-75
2022/05/26 02:12:11;;;;;;;;;;;;;;;24.74;27.61;99598.25;5078625;28;20317;-75
2022/05/26 02:14:38;;;;;;;;;;;;;;;24.76;27.20;99591.69;5078865;28;20251;-75
2022/05/26 02:17:05;;;;;;;;;;;;;;;24.76;27.37;99587.03;5078675;28;19924;-75
2022/05/26 02:19:38;;;;;;;;;;;;;;;24.76;27.38;99581.56;5096528;28;19916;-75
2022/05/26 02:22:18;;;;;;;;;;;;;;;24.77;27.19;99582.38;5078610;28;19926;-76
2022/05/26 02:24:53;;;;;;;;;;;;;;;24.75;27.28;99579.97;5095855;28;19930;-76
2022/05/26 02:27:19;;;;;;;;;;;;;;;24.73;27.16;99582.16;5096369;28;20015;-76
2022/05/26 02:29:59;;;;;;;;;;;;;;;24.73;27.18;99563.88;5078337;28;19955;-76
2022/05/26 02:32:36;;;;;;;;;;;;;;;24.72;27.23;99569.63;5080086;28;20370;-75
2022/05/26 02:35:04;;;;;;;;;;;;;;;24.74;27.09;99572.88;5096195;28;20349;-76
2022/05/26 02:37:30;;;;;;;;;;;;;;;24.74;27.27;99567.41;5095907;28;19916;-76
2022/05/26 02:39:55;;;;;;;;;;;;;;;24.74;27.22;99575.59;5077933;28;20400;-76
2022/05/26 02:42:20;;;;;;;;;;;;;;;24.74;27.36;99567.41;5095799;28;19966;-76
2022/05/26 02:44:45;;;;;;;;;;;;;;;24.72;27.28;99575.09;5095709;28;19916;-76
2022/05/26 02:47:23;;;;;;;;;;;;;;;24.72;27.29;99569.63;5096188;28;19980;-76
2022/05/26 02:50:09;;;;;;;;;;;;;;;24.73;27.29;99565.78;5095916;28;20351;-76
2022/05/26 02:52:40;;;;;;;;;;;;;;;24.71;27.51;99562.53;5057536;28;19979;-76
2022/05/26 02:55:06;;;;;;;;;;;;;;;24.70;27.53;99566.41;5075369;28;19932;-76
2022/05/26 02:57:33;;;;;;;;;;;;;;;24.70;27.38;99561.75;5075366;28;19917;-76
2022/05/26 03:00:06;;;;;;;;;;;;;;;24.72;27.35;99559.50;5075590;28;19917;-76
2022/05/26 03:02:33;;;;;;;;;;;;;;;24.73;27.45;99554.84;5075372;28;19924;-76
2022/05/26 03:05:03;;;;;;;;;;;;;;;24.73;27.59;99552.13;5074958;28;20395;-76
2022/05/26 03:07:28;;;;;;;;;;;;;;;24.71;27.64;99549.69;5075007;28;19923;-76
2022/05/26 03:09:53;;;;;;;;;;;;;;;24.70;27.69;99544.53;5075265;28;19917;-76
2022/05/26 03:12:29;;;;;;;;;;;;;;;24.69;27.85;99545.66;5074898;28;19916;-76
2022/05/26 03:14:54;;;;;;;;;;;;;;;24.70;27.78;99545.34;5075148;28;19920;-76
2022/05/26 03:17:19;;;;;;;;;;;;;;;24.70;27.95;99547.28;5090413;28;19916;-76
2022/05/26 03:19:45;;;;;;;;;;;;;;;24.70;27.85;99544.53;5075209;28;19920;-76
2022/05/26 03:22:10;;;;;;;;;;;;;;;24.71;28.15;99546.16;5074738;28;20367;-76
2022/05/26 03:24:35;;;;;;;;;;;;;;;24.69;28.32;99535.53;5074397;28;19927;-76
2022/05/26 03:27:00;;;;;;;;;;;;;;;24.70;28.24;99530.88;5075084;28;19917;-76
2022/05/26 03:29:26;;;;;;;;;;;;;;;24.70;28.40;99534.41;5074535;28;20275;-76
2022/05/26 03:31:51;;;;;;;;;;;;;;;24.71;28.16;99529.75;5074992;28;20007;-76
2022/05/26 03:42:28;;;;;;;;;;;;;;;24.67;28.75;99526.03;5074774;28;19923;-72
2022/05/26 03:44:53;;;;;;;;;;;;;;;24.68;28.71;99524.88;5074339;28;20019;-72
2022/05/26 03:47:18;;;;;;;;;;;;;;;24.67;29.05;99512.38;5074630;28;20371;-72
2022/05/26 03:49:44;;;;;;;;;;;;;;;24.67;29.00;99509.63;5074548;28;19943;-72
2022/05/26 03:52:09;;;;;;;;;;;;;;;24.67;28.75;99510.44;5092275;28;20286;-72
2022/05/26 03:54:34;;;;;;;;;;;;;;;24.69;28.88;99504.66;5094943;28;19924;-72
2022/05/26 03:56:59;;;;;;;;;;;;;;;24.69;28.76;99502.72;5094598;28;20362;-71
2022/05/26 03:59:25;;;;;;;;;;;;;;;24.69;28.23;99504.66;5094466;28;20022;-71
2022/05/26 04:01:50;;;;;;;;;;;;;;;24.71;28.51;99502.44;5094874;28;19970;-71
2022/05/26 04:04:16;;;;;;;;;;;;;;;24.70;28.77;99498.91;5095891;28;20326;-71
2022/05/26 04:06:41;;;;;;;;;;;;;;;24.70;28.86;99492.63;5096482;28;19960;-71
2022/05/26 04:09:07;;;;;;;;;;;;;;;24.69;28.70;99493.75;5096281;28;19937;-71
2022/05/26 04:11:32;;;;;;;;;;;;;;;24.67;28.54;99485.03;5096437;28;19916;-71
2022/05/26 04:13:57;;;;;;;;;;;;;;;24.67;28.68;99482.31;5102927;28;19938;-71
2022/05/26 04:16:22;;;;;;;;;;;;;;;24.66;28.34;99475.22;5104891;28;20010;-71
2022/05/26 04:18:48;;;;;;;;;;;;;;;24.66;28.47;99469.75;5101627;28;20305;-71
2022/05/26 04:21:13;;;;;;;;;;;;;;;24.66;28.53;99475.22;5094066;28;20370;-72
2022/05/26 04:23:38;;;;;;;;;;;;;;;24.67;28.59;99469.44;5094059;28;19927;-73
2022/05/26 04:26:04;;;;;;;;;;;;;;;24.66;28.57;99473.28;5093962;28;20354;-70
2022/05/26 04:28:31;;;;;;;;;;;;;;;24.68;28.29;99470.25;5093582;28;20339;-70
2022/05/26 04:30:56;;;;;;;;;;;;;;;24.67;28.40;99463.19;5094144;28;19920;-70
2022/05/26 04:33:21;;;;;;;;;;;;;;;24.68;28.40;99464.78;5093987;28;19920;-70
2022/05/26 04:35:47;;;;;;;;;;;;;;;24.67;28.16;99460.47;5093889;28;19916;-70
2022/05/26 04:38:12;;;;;;;;;;;;;;;24.67;28.52;99461.25;5093945;28;19922;-70
2022/05/26 04:40:39;;;;;;;;;;;;;;;24.69;28.64;99461.75;5093961;28;20412;-70
2022/05/26 04:43:05;;;;;;;;;;;;;;;24.67;28.31;99460.47;5093681;28;20382;-70
2022/05/26 04:45:30;;;;;;;;;;;;;;;24.65;28.26;99444.38;5093710;28;19974;-70
2022/05/26 04:47:55;;;;;;;;;;;;;;;24.66;28.27;99445.16;5093597;28;20363;-70
2022/05/26 04:50:21;;;;;;;;;;;;;;;24.66;28.25;99458.81;5075427;28;19920;-70
2022/05/26 04:52:46;;;;;;;;;;;;;;;24.68;28.03;99457.44;5093443;28;20362;-70
2022/05/26 04:55:11;;;;;;;;;;;;;;;24.68;28.19;99456.59;5093507;28;19916;-70
2022/05/26 04:57:37;;;;;;;;;;;;;;;24.66;28.21;99445.16;5094057;28;19917;-71
2022/05/26 05:00:03;;;;;;;;;;;;;;;24.67;28.20;99449.53;5093813;28;19916;-70
2022/05/26 05:02:28;;;;;;;;;;;;;;;24.69;28.14;99458.22;5093678;28;19923;-70
2022/05/26 05:04:53;;;;;;;;;;;;;;;24.68;28.24;99449.22;5075620;28;19920;-70
2022/05/26 05:07:18;;;;;;;;;;;;;;;24.68;28.13;99437.47;5093338;28;20359;-70
2022/05/26 05:09:44;;;;;;;;;;;;;;;24.66;28.06;99436.97;5093243;28;19916;-71
2022/05/26 05:12:13;;;;;;;;;;;;;;;24.67;28.23;99442.13;5093700;28;19916;-70
2022/05/26 05:14:43;;;;;;;;;;;;;;;24.66;28.21;99439.69;5093209;28;20351;-70
2022/05/26 05:17:08;;;;;;;;;;;;;;;24.66;28.39;99429.56;5093312;28;19924;-70
2022/05/26 05:19:33;;;;;;;;;;;;;;;24.66;28.33;99426.03;5096264;28;19920;-70
2022/05/26 05:22:00;;;;;;;;;;;;;;;24.67;28.16;99419.47;5097454;28;19916;-70
2022/05/26 05:24:26;;;;;;;;;;;;;;;24.66;28.07;99424.09;5096977;28;20061;-70
2022/05/26 05:26:52;;;;;;;;;;;;;;;24.67;28.25;99414.00;5097402;28;20410;-70
2022/05/26 05:29:18;;;;;;;;;;;;;;;24.66;28.20;99417.84;5079243;28;19945;-70
2022/05/26 05:31:51;;;;;;;;;;;;;;;24.66;28.15;99415.13;5097022;28;19920;-70
2022/05/26 05:34:20;;;;;;;;;;;;;;;24.63;28.28;99413.00;5096888;28;19966;-70
2022/05/26 05:36:46;;;;;;;;;;;;;;;24.66;28.25;99412.38;5096905;28;19923;-70
2022/05/26 05:39:11;;;;;;;;;;;;;;;24.67;28.50;99403.09;5097210;28;20311;-70
2022/05/26 05:41:36;;;;;;;;;;;;;;;24.65;28.54;99403.38;5096867;28;19932;-70
2022/05/26 05:44:02;;;;;;;;;;;;;;;24.65;28.55;99394.41;5096809;28;19924;-70
2022/05/26 05:46:34;;;;;;;;;;;;;;;24.65;28.74;99397.13;5078757;28;19935;-70
2022/05/26 05:49:00;;;;;;;;;;;;;;;24.65;28.57;99397.13;5097085;28;20015;-70
2022/05/26 05:51:25;;;;;;;;;;;;;;;24.65;28.80;99388.94;5096901;28;19951;-70
2022/05/26 05:53:50;;;;;;;;;;;;;;;24.65;28.54;99380.72;5096811;28;19998;-70
2022/05/26 05:56:15;;;;;;;;;;;;;;;24.67;28.64;99392.16;5096657;28;20290;-70
2022/05/26 05:58:41;;;;;;;;;;;;;;;24.65;28.91;99391.66;5096501;28;19986;-70
2022/05/26 06:01:06;;;;;;;;;;;;;;;24.65;28.86;99397.94;5096918;28;19920;-75
2022/05/26 06:03:32;;;;;;;;;;;;;;;24.65;28.51;99397.94;5096444;28;19920;-75
2022/05/26 06:06:01;;;;;;;;;;;;;;;24.66;28.65;99402.25;5078598;28;19924;-75
2022/05/26 06:08:26;;;;;;;;;;;;;;;24.67;28.68;99397.63;5096422;28;19916;-75
2022/05/26 06:10:52;;;;;;;;;;;;;;;24.67;28.90;99403.09;5096712;28;19923;-75
2022/05/26 06:13:17;;;;;;;;;;;;;;;24.65;28.91;99397.94;5096233;28;19916;-75
2022/05/26 06:15:45;;;;;;;;;;;;;;;24.65;28.85;99394.41;5096246;28;19923;-75
2022/05/26 06:18:10;;;;;;;;;;;;;;;24.65;28.78;99399.84;5096262;28;19991;-75
2022/05/26 06:20:35;;;;;;;;;;;;;;;24.65;29.01;99397.94;5096429;28;19928;-76
2022/05/26 06:23:01;;;;;;;;;;;;;;;24.65;28.99;99394.41;5095904;28;19916;-76
2022/05/26 06:25:26;;;;;;;;;;;;;;;24.64;28.89;99395.50;5078208;28;19962;-76
2022/05/26 06:30:35;;;;;;;;;;;;;;;24.62;29.00;99398.53;5095710;28;20010;-76
2022/05/26 06:38:29;;;;;;;;;;;;;;;24.63;28.95;99396.59;5096019;28;19961;-76
2022/05/26 06:40:55;;;;;;;;;;;;;;;24.65;28.59;99394.41;5095867;28;19973;-76
2022/05/26 06:43:20;;;;;;;;;;;;;;;24.64;28.69;99384.56;5096043;28;19916;-76
2022/05/26 06:45:46;;;;;;;;;;;;;;;24.64;28.73;99385.38;5095811;28;19920;-76
2022/05/26 06:48:11;;;;;;;;;;;;;;;24.61;28.74;99388.75;5077548;28;19927;-76
2022/05/26 06:50:37;;;;;;;;;;;;;;;24.63;28.42;99381.03;5096271;28;19916;-76
2022/05/26 06:53:03;;;;;;;;;;;;;;;24.61;28.56;99387.91;5095916;28;19939;-76
2022/05/26 06:55:28;;;;;;;;;;;;;;;24.60;28.79;99380.84;5095827;28;19978;-76
2022/05/26 06:57:53;;;;;;;;;;;;;;;24.63;28.82;99385.69;5095515;28;19920;-76
2022/05/26 07:00:19;;;;;;;;;;;;;;;24.63;28.82;99381.03;5095405;28;19942;-76
2022/05/26 07:02:44;;;;;;;;;;;;;;;24.64;28.81;99385.38;5096483;28;20006;-76
2022/05/26 07:05:11;;;;;;;;;;;;;;;24.65;28.68;99378.00;5077518;28;19920;-76
2022/05/26 07:07:36;;;;;;;;;;;;;;;24.64;28.47;99382.63;5095751;28;19916;-76
2022/05/26 07:10:02;;;;;;;;;;;;;;;24.64;28.73;99376.38;5095653;28;19916;-73
2022/05/26 07:12:27;;;;;;;;;;;;;;;24.64;28.88;99374.44;5095078;28;19916;-73
2022/05/26 07:14:54;;;;;;;;;;;;;;;24.65;28.84;99375.28;5095477;28;19920;-73
2022/05/26 07:17:19;;;;;;;;;;;;;;;24.64;28.88;99377.19;5095301;28;19916;-73
2022/05/26 07:19:44;;;;;;;;;;;;;;;24.65;28.84;99372.53;5095402;28;19966;-73
2022/05/26 07:22:09;;;;;;;;;;;;;;;24.64;28.79;99365.44;5095269;28;20335;-72
2022/05/26 07:24:35;;;;;;;;;;;;;;;24.64;28.91;99370.91;5094686;28;19926;-72
2022/05/26 07:27:00;;;;;;;;;;;;;;;24.65;28.71;99361.63;5094868;28;19946;-72
2022/05/26 07:29:26;;;;;;;;;;;;;;;24.65;28.50;99356.16;5094801;28;19924;-72
2022/05/26 07:31:51;;;;;;;;;;;;;;;24.64;28.78;99359.97;5095191;28;19916;-72
2022/05/26 07:34:18;;;;;;;;;;;;;;;24.63;28.79;99364.66;5095033;28;19916;-72
2022/05/26 07:42:14;;;;;;;;;;;;;;;24.62;28.47;99354.03;5078406;28;20294;-70
2022/05/26 07:44:42;;;;;;;;;;;;;;;24.61;28.39;99355.97;5094829;28;19916;-71
2022/05/26 07:47:07;;;;;;;;;;;;;;;24.61;28.53;99355.13;5094907;28;19920;-70
2022/05/26 07:49:33;;;;;;;;;;;;;;;24.62;28.25;99356.75;5076758;28;19927;-70
2022/05/26 07:52:01;;;;;;;;;;;;;;;24.62;28.41;99356.75;5094794;28;19985;-70
2022/05/26 07:54:27;;;;;;;;;;;;;;;24.62;28.40;99351.28;5094537;28;19923;-70
2022/05/26 07:56:52;;;;;;;;;;;;;;;24.63;28.35;99359.19;5094797;28;19916;-70
2022/05/26 07:59:17;;;;;;;;;;;;;;;24.61;28.56;99352.41;5094416;28;20281;-70
2022/05/26 08:01:42;;;;;;;;;;;;;;;24.63;28.73;99352.91;5094714;28;19923;-70
2022/05/26 08:04:08;;;;;;;;;;;;;;;24.61;28.77;99350.50;5095157;28;19939;-70
2022/05/26 08:06:33;;;;;;;;;;;;;;;24.61;28.68;99353.22;5094500;28;20408;-70
2022/05/26 08:08:59;;;;;;;;;;;;;;;24.60;28.64;99348.06;5094417;28;20306;-70
2022/05/26 08:11:25;;;;;;;;;;;;;;;24.62;28.73;99354.03;5094705;28;19916;-70
2022/05/26 08:13:50;;;;;;;;;;;;;;;24.62;28.67;99349.38;5094727;28;19955;-70
2022/05/26 08:16:16;;;;;;;;;;;;;;;24.63;28.52;99347.44;5094314;28;20334;-70
2022/05/26 08:18:41;;;;;;;;;;;;;;;24.61;28.29;99355.97;5094916;28;19957;-70
2022/05/26 08:21:07;;;;;;;;;;;;;;;24.61;28.27;99345.03;5097810;28;20385;-71
2022/05/26 08:23:32;;;;;;;;;;;;;;;24.60;28.36;99345.34;5105523;28;19943;-70
2022/05/26 08:25:57;;;;;;;;;;;;;;;24.59;28.49;99347.25;5102687;28;19939;-70
2022/05/26 08:28:24;;;;;;;;;;;;;;;24.60;28.44;99350.78;5094943;28;20318;-70
2022/05/26 08:30:49;;;;;;;;;;;;;;;24.58;28.62;99356.56;5094477;28;20317;-70
2022/05/26 08:33:14;;;;;;;;;;;;;;;24.59;28.56;99346.44;5094301;28;19923;-70
2022/05/26 08:35:39;;;;;;;;;;;;;;;24.61;28.55;99344.19;5094090;28;20227;-70
2022/05/26 08:38:05;;;;;;;;;;;;;;;24.59;28.36;99344.50;5094095;28;19920;-70
2022/05/26 08:40:41;;;;;;;;;;;;;;;24.57;28.61;99335.00;5075728;28;20355;-70
2022/05/26 08:43:09;;;;;;;;;;;;;;;24.57;28.47;99335.81;5093838;28;20331;-70
2022/05/26 08:45:35;;;;;;;;;;;;;;;24.59;28.43;99335.50;5075705;28;19935;-70
2022/05/26 08:48:00;;;;;;;;;;;;;;;24.59;28.46;99335.50;5094070;28;19927;-70
2022/05/26 08:50:27;;;;;;;;;;;;;;;24.59;28.33;99336.31;5076070;28;20305;-70
2022/05/26 08:53:04;;;;;;;;;;;;;;;24.60;28.20;99337.13;5093800;28;19916;-70
2022/05/26 08:55:30;;;;;;;;;;;;;;;24.60;28.28;99337.13;5098214;28;19998;-70
2022/05/26 08:58:00;;;;;;;;;;;;;;;24.59;28.26;99333.59;5080191;28;19916;-70
2022/05/26 09:00:25;;;;;;;;;;;;;;;24.60;28.36;99328.94;5098205;28;19920;-70
2022/05/26 09:02:58;;;;;;;;;;;;;;;24.59;28.34;99344.50;5098234;28;20263;-70
2022/05/26 09:05:24;;;;;;;;;;;;;;;24.59;28.26;99335.50;5098246;28;19966;-70
2022/05/26 09:13:41;;;;;;;;;;;;;;;24.59;28.28;99335.50;5083062;28;19923;-69
2022/05/26 09:16:07;;;;;;;;;;;;;;;24.60;28.44;99342.59;5098330;28;19916;-69
2022/05/26 09:18:32;;;;;;;;;;;;;;;24.57;28.37;99335.81;5098227;28;20363;-70
2022/05/26 09:21:11;;;;;;;;;;;;;;;24.58;28.53;99333.88;5098718;28;19917;-70
2022/05/26 09:23:38;;;;;;;;;;;;;;;24.58;28.61;99333.88;5098171;28;19927;-70
2022/05/26 09:26:05;;;;;;;;;;;;;;;24.60;28.73;99331.69;5098445;28;19920;-70
2022/05/26 09:28:32;;;;;;;;;;;;;;;24.59;28.43;99330.84;5081901;28;19916;-70
2022/05/26 09:31:11;;;;;;;;;;;;;;;24.58;28.78;99322.97;5101471;28;19923;-70
2022/05/26 09:33:36;;;;;;;;;;;;;;;24.58;28.44;99323.78;5078839;28;19916;-70
2022/05/26 09:36:23;;;;;;;;;;;;;;;24.60;28.54;99327.00;5079175;28;20377;-70
2022/05/26 09:38:48;;;;;;;;;;;;;;;24.59;28.64;99317.19;5079245;28;19916;-70
2022/05/26 09:41:15;;;;;;;;;;;;;;;24.58;28.71;99314.75;5096917;28;19927;-70
2022/05/26 09:43:44;;;;;;;;;;;;;;;24.59;28.63;99317.19;5097252;28;19916;-70
2022/05/26 09:46:10;;;;;;;;;;;;;;;24.58;28.64;99314.75;5078695;28;19970;-70
2022/05/26 09:48:36;;;;;;;;;;;;;;;24.58;28.86;99318.31;5097069;28;19955;-70
2022/05/26 09:51:20;;;;;;;;;;;;;;;24.59;28.70;99313.66;5097050;28;20341;-71
2022/05/26 09:53:45;;;;;;;;;;;;;;;24.58;28.66;99309.31;5096969;28;19916;-75
2022/05/26 09:56:11;;;;;;;;;;;;;;;24.58;28.76;99317.50;5079061;28;20316;-75
2022/05/26 09:58:41;;;;;;;;;;;;;;;24.59;28.57;99309.00;5097006;28;20012;-75
2022/05/26 10:01:10;;;;;;;;;;;;;;;24.57;28.67;99307.69;5078749;28;19917;-75
2022/05/26 10:03:36;;;;;;;;;;;;;;;24.58;28.85;99306.56;5078371;28;19916;-76
2022/05/26 10:06:15;;;;;;;;;;;;;;;24.58;28.83;99307.41;5095242;28;19917;-76
2022/05/26 10:08:46;;;;;;;;;;;;;;;24.58;28.83;99303.84;5096522;28;19916;-76
2022/05/26 10:11:14;;;;;;;;;;;;;;;24.58;28.71;99301.09;5096380;28;19923;-76
2022/05/26 10:13:42;;;;;;;;;;;;;;;24.57;28.49;99304.97;5096421;28;19916;-76
2022/05/26 10:16:12;;;;;;;;;;;;;;;24.57;28.79;99310.44;5078636;28;19935;-76
2022/05/26 10:18:47;;;;;;;;;;;;;;;24.59;28.89;99313.66;5096593;28;19955;-76
2022/05/26 10:21:18;;;;;;;;;;;;;;;24.58;28.88;99322.97;5096421;28;19924;-76
2022/05/26 10:23:52;;;;;;;;;;;;;;;24.59;28.90;99306.25;5096179;28;19920;-76
2022/05/26 10:26:26;;;;;;;;;;;;;;;24.58;28.91;99312.03;5096519;28;20378;-76
2022/05/26 10:29:00;;;;;;;;;;;;;;;24.58;29.17;99301.09;5096343;28;19923;-76
2022/05/26 10:31:25;;;;;;;;;;;;;;;24.59;29.23;99302.75;5096382;28;20278;-76
2022/05/26 10:34:17;;;;;;;;;;;;;;;24.59;29.33;99300.00;5096276;28;19916;-76
2022/05/26 10:37:00;;;;;;;;;;;;;;;24.58;29.43;99301.94;5033734;28;19917;-76
2022/05/26 10:39:28;;;;;;;;;;;;;;;24.55;29.35;99297.88;5033618;28;19917;-76
2022/05/26 10:41:55;;;;;;;;;;;;;;;24.58;29.43;99303.84;5033844;28;19927;-76
2022/05/26 10:44:20;;;;;;;;;;;;;;;24.58;29.36;99301.94;5017278;28;19921;-76
2022/05/26 10:46:50;;;;;;;;;;;;;;;24.57;29.57;99300.31;5033572;28;19921;-76
2022/05/26 10:49:17;;;;;;;;;;;;;;;24.57;29.32;99297.56;5033490;28;19917;-76
2022/05/26 10:51:45;;;;;;;;;;;;;;;24.57;29.59;99291.31;5016829;28;19917;-76
2022/05/26 10:54:30;;;;;;;;;;;;;;;24.57;29.38;99296.78;5017014;28;19924;-73
2022/05/26 10:57:05;;;;;;;;;;;;;;;24.57;29.57;99289.38;5032730;28;20011;-73
2022/05/26 10:59:33;;;;;;;;;;;;;;;24.57;29.46;99283.13;5016617;28;19917;-73
2022/05/26 11:02:02;;;;;;;;;;;;;;;24.57;29.64;99283.91;5033163;28;20427;-73
2022/05/26 11:04:48;;;;;;;;;;;;;;;24.58;29.78;99284.72;5016683;28;19940;-73
2022/05/26 11:07:21;;;;;;;;;;;;;;;24.58;29.82;99279.25;5016507;28;19921;-73
2022/05/26 11:09:49;;;;;;;;;;;;;;;24.56;29.90;99271.41;5033012;28;19921;-73
2022/05/26 11:12:15;;;;;;;;;;;;;;;24.58;29.79;99271.06;5032826;28;20371;-73
2022/05/26 11:17:30;;;;;;;;;;;;;;;24.57;29.31;99272.19;5094956;28;19943;-73
2022/05/26 11:20:00;;;;;;;;;;;;;;;24.57;29.63;99273.00;5095384;28;19951;-72
2022/05/26 11:22:25;;;;;;;;;;;;;;;24.58;29.77;99273.78;5077254;28;19970;-73
2022/05/26 11:24:51;;;;;;;;;;;;;;;24.56;29.57;99271.41;5094935;28;20390;-73
2022/05/26 11:27:19;;;;;;;;;;;;;;;24.55;29.72;99273.31;5077068;28;19928;-73
2022/05/26 11:29:56;;;;;;;;;;;;;;;24.56;29.76;99265.94;5094819;28;20388;-73
2022/05/26 11:38:05;;;;;;;;;;;;;;;24.54;29.84;99268.13;5094816;28;19931;-70
2022/05/26 11:40:35;;;;;;;;;;;;;;;24.55;29.92;99264.31;5094608;28;19916;-70
2022/05/26 11:43:01;;;;;;;;;;;;;;;24.55;29.86;99265.09;5094993;28;20308;-70
2022/05/26 11:45:32;;;;;;;;;;;;;;;24.55;29.91;99267.03;5095172;28;19920;-70
2022/05/26 11:47:58;;;;;;;;;;;;;;;24.54;29.99;99254.50;5094861;28;19970;-70
2022/05/26 11:50:32;;;;;;;;;;;;;;;24.52;29.87;99254.75;5094450;28;19920;-70
2022/05/26 11:52:58;;;;;;;;;;;;;;;24.54;29.91;99255.31;5077751;28;19916;-70
2022/05/26 11:55:42;;;;;;;;;;;;;;;24.55;29.91;99251.44;5074310;28;19921;-70
2022/05/26 11:58:26;;;;;;;;;;;;;;;24.53;30.14;99250.94;5074335;28;19917;-70
2022/05/26 12:01:08;;;;;;;;;;;;;;;24.54;29.95;99247.13;5073952;28;19997;-70
2022/05/26 12:03:34;;;;;;;;;;;;;;;24.55;30.04;99242.47;5073925;28;20383;-70
2022/05/26 12:05:59;;;;;;;;;;;;;;;24.55;29.88;99243.25;5056034;28;19947;-70
2022/05/26 12:08:32;;;;;;;;;;;;;;;24.54;29.92;99241.66;5074317;28;20347;-70
2022/05/26 12:10:58;;;;;;;;;;;;;;;24.53;29.99;99240.00;5074172;28;19920;-70
2022/05/26 12:13:24;;;;;;;;;;;;;;;24.54;30.06;99241.66;5074061;28;20107;-70
2022/05/26 12:16:09;;;;;;;;;;;;;;;24.55;30.02;99243.25;5074113;28;19920;-70
2022/05/26 12:18:40;;;;;;;;;;;;;;;24.55;29.71;99240.53;5056598;28;19932;-70
2022/05/26 12:21:12;;;;;;;;;;;;;;;24.55;29.85;99240.53;5073672;28;19924;-70
2022/05/26 12:23:38;;;;;;;;;;;;;;;24.55;29.71;99237.78;5079210;28;19920;-70
2022/05/26 12:26:21;;;;;;;;;;;;;;;24.57;29.91;99242.16;5094087;28;19978;-70
2022/05/26 12:28:47;;;;;;;;;;;;;;;24.55;29.69;99234.25;5093428;28;19916;-70
2022/05/26 12:31:12;;;;;;;;;;;;;;;24.55;29.95;99232.34;5093820;28;19923;-70
2022/05/26 12:33:40;;;;;;;;;;;;;;;24.54;29.60;99228.00;5093654;28;19916;-70
2022/05/26 12:36:11;;;;;;;;;;;;;;;24.54;29.60;99230.75;5093687;28;19943;-70
2022/05/26 12:38:49;;;;;;;;;;;;;;;24.54;29.67;99225.28;5093972;28;19951;-70
2022/05/26 12:41:33;;;;;;;;;;;;;;;24.54;29.85;99219.81;5093634;28;20290;-70
2022/05/26 12:44:14;;;;;;;;;;;;;;;24.54;29.91;99214.34;5094128;28;20297;-71
2022/05/26 12:46:43;;;;;;;;;;;;;;;24.53;29.92;99212.69;5093550;28;20366;-71
2022/05/26 12:49:23;;;;;;;;;;;;;;;24.53;29.99;99215.41;5075799;28;19922;-70
2022/05/26 12:51:56;;;;;;;;;;;;;;;24.53;29.83;99214.63;5087229;28;19924;-70
2022/05/26 12:54:21;;;;;;;;;;;;;;;24.55;29.92;99212.41;5073364;28;19916;-70
2022/05/26 12:56:49;;;;;;;;;;;;;;;24.55;29.98;99209.69;5055698;28;19923;-70
2022/05/26 12:59:15;;;;;;;;;;;;;;;24.55;29.75;99210.47;5073629;28;19916;-70
2022/05/26 13:01:40;;;;;;;;;;;;;;;24.54;29.82;99197.97;5073498;28;20252;-70
2022/05/26 13:04:09;;;;;;;;;;;;;;;24.54;29.90;99203.41;5073563;28;20386;-70
2022/05/26 13:06:39;;;;;;;;;;;;;;;24.53;30.13;99206.44;5055564;28;20232;-70
2022/05/26 13:09:06;;;;;;;;;;;;;;;24.52;30.14;99194.69;5073647;28;19978;-70
2022/05/26 13:11:33;;;;;;;;;;;;;;;24.53;30.00;99196.31;5073521;28;19920;-70
2022/05/26 13:13:59;;;;;;;;;;;;;;;24.54;30.04;99194.41;5055584;28;20007;-70
2022/05/26 13:16:25;;;;;;;;;;;;;;;24.54;29.98;99192.50;5055233;28;19967;-74
2022/05/26 13:18:51;;;;;;;;;;;;;;;24.55;30.02;99194.09;5073537;28;19916;-75
2022/05/26 13:21:17;;;;;;;;;;;;;;;24.54;29.80;99187.03;5055529;28;19917;-75
2022/05/26 13:23:42;;;;;;;;;;;;;;;24.55;29.92;99188.63;5072933;28;20378;-75
2022/05/26 13:26:07;;;;;;;;;;;;;;;24.53;30.09;99185.38;5073476;28;19920;-75
2022/05/26 13:28:32;;;;;;;;;;;;;;;24.53;30.17;99179.91;5073442;28;20027;-76
2022/05/26 13:33:44;;;;;;;;;;;;;;;24.55;30.27;99171.44;5058307;28;20352;-76